Time;durP1;ratioP1;P1;durP2;ratioP2;P2;SDS_P1;SDS_P2;PMS_P1;PMS_P2;Temp;Humidity;BMP_temperature;BMP_pressure;BME280_temperature;BME280_humidity;BME280_pressure;Samples;Min_cycle;Max_cycle;Signal;HPM_P1;HPM_P2
2023/11/03 00:02:33;;;;;;;1.17;0.20;;;;;;;;;;10529698;28;20549;-74
2023/11/03 00:07:35;;;;;;;0.28;0.25;;;;;;;;;;10520321;28;20047;-75
2023/11/03 00:12:38;;;;;;;0.47;0.40;;;;;;;;;;10542247;27;20040;-73
2023/11/03 00:17:43;;;;;;;0.15;0.10;;;;;;;;;;10524300;28;20033;-74
2023/11/03 00:22:45;;;;;;;1.08;0.30;;;;;;;;;;10523048;28;20048;-75
2023/11/03 00:27:48;;;;;;;0.22;0.20;;;;;;;;;;10527817;28;20058;-75
2023/11/03 00:32:52;;;;;;;0.20;0.10;;;;;;;;;;10521864;28;20628;-74
2023/11/03 00:37:56;;;;;;;0.00;0.00;;;;;;;;;;10532617;28;20044;-76
2023/11/03 00:43:02;;;;;;;0.55;0.28;;;;;;;;;;10530485;28;20043;-76
2023/11/03 00:48:07;;;;;;;0.00;0.00;;;;;;;;;;10526514;28;20512;-76
2023/11/03 00:53:10;;;;;;;0.40;0.30;;;;;;;;;;10524532;28;20071;-75
2023/11/03 00:58:12;;;;;;;0.75;0.40;;;;;;;;;;10533252;28;20085;-75
2023/11/03 01:03:17;;;;;;;0.95;0.43;;;;;;;;;;10534406;28;20040;-75
2023/11/03 01:08:22;;;;;;;0.95;0.68;;;;;;;;;;10541515;27;20119;-74
2023/11/03 01:13:27;;;;;;;0.15;0.15;;;;;;;;;;10524308;28;20565;-74
2023/11/03 01:18:31;;;;;;;0.45;0.43;;;;;;;;;;10524386;28;20125;-74
2023/11/03 01:23:34;;;;;;;;;;;;;;;;;;10530814;28;20055;-76
2023/11/03 01:28:37;;;;;;;1.15;0.50;;;;;;;;;;10523963;28;20344;-76
2023/11/03 01:33:41;;;;;;;0.82;0.47;;;;;;;;;;10520813;28;20044;-75
2023/11/03 01:38:44;;;;;;;2.78;0.70;;;;;;;;;;10527039;28;20040;-75
2023/11/03 01:44:05;;;;;;;0.52;0.47;;;;;;;;;;10504739;28;20051;-75
2023/11/03 01:49:11;;;;;;;1.20;0.50;;;;;;;;;;10526469;28;20089;-75
2023/11/03 01:54:14;;;;;;;1.17;0.40;;;;;;;;;;10529328;28;20050;-75
2023/11/03 01:59:18;;;;;;;0.10;0.10;;;;;;;;;;10527054;28;20040;-76
2023/11/03 02:04:23;;;;;;;0.38;0.30;;;;;;;;;;10526884;28;20059;-75
2023/11/03 02:09:26;;;;;;;0.40;0.40;;;;;;;;;;10514946;28;20062;-75
2023/11/03 02:14:29;;;;;;;0.28;0.20;;;;;;;;;;10518671;28;20097;-76
2023/11/03 02:19:33;;;;;;;1.48;0.35;;;;;;;;;;10526117;28;20463;-76
2023/11/03 02:24:37;;;;;;;0.35;0.30;;;;;;;;;;10525572;28;20156;-75
2023/11/03 02:29:40;;;;;;;1.63;0.73;;;;;;;;;;10521433;28;20048;-76
2023/11/03 02:34:43;;;;;;;0.85;0.45;;;;;;;;;;10525314;28;20313;-76
2023/11/03 02:39:48;;;;;;;2.07;0.97;;;;;;;;;;10524248;28;20040;-76
2023/11/03 02:44:51;;;;;;;1.05;0.73;;;;;;;;;;10519013;28;20045;-76
2023/11/03 02:49:54;;;;;;;1.73;0.85;;;;;;;;;;10529899;28;20424;-76
2023/11/03 02:54:58;;;;;;;1.73;0.65;;;;;;;;;;10527915;28;20431;-76
2023/11/03 03:00:00;;;;;;;4.60;0.82;;;;;;;;;;10532292;28;20075;-76
2023/11/03 03:05:03;;;;;;;0.80;0.80;;;;;;;;;;10530603;28;20060;-76
2023/11/03 03:10:09;;;;;;;1.40;0.90;;;;;;;;;;10527428;28;20044;-76
2023/11/03 03:15:11;;;;;;;1.98;0.50;;;;;;;;;;10540433;27;20067;-75
2023/11/03 03:20:14;;;;;;;1.13;0.75;;;;;;;;;;10536704;28;20035;-76
2023/11/03 03:25:19;;;;;;;1.63;1.00;;;;;;;;;;10529696;28;20057;-76
2023/11/03 03:30:22;;;;;;;1.98;1.15;;;;;;;;;;10533884;28;20139;-76
2023/11/03 03:35:24;;;;;;;3.65;1.08;;;;;;;;;;10532842;28;20520;-75
2023/11/03 03:40:28;;;;;;;1.35;0.82;;;;;;;;;;10530020;28;20310;-74
2023/11/03 03:45:31;;;;;;;3.38;0.88;;;;;;;;;;10526315;28;20127;-73
2023/11/03 03:50:34;;;;;;;1.42;0.90;;;;;;;;;;10530540;28;20052;-75
2023/11/03 03:55:46;;;;;;;0.55;0.40;;;;;;;;;;10524334;28;20442;-75
2023/11/03 04:00:50;;;;;;;1.20;0.80;;;;;;;;;;10528278;28;20047;-74
2023/11/03 04:05:52;;;;;;;2.58;1.05;;;;;;;;;;10529759;28;20486;-75
2023/11/03 04:10:56;;;;;;;2.33;1.17;;;;;;;;;;10526365;28;20044;-75
2023/11/03 04:15:59;;;;;;;4.28;1.27;;;;;;;;;;10528399;28;20036;-75
2023/11/03 04:21:02;;;;;;;2.33;1.10;;;;;;;;;;10524164;28;20097;-76
2023/11/03 04:26:06;;;;;;;3.90;1.20;;;;;;;;;;10527285;28;20502;-76
2023/11/03 04:31:09;;;;;;;;;;;;;;;;;;10529957;28;20654;-75
2023/11/03 04:36:12;;;;;;;5.18;1.10;;;;;;;;;;10535774;28;19924;-75
2023/11/03 04:41:16;;;;;;;3.53;1.23;;;;;;;;;;10528391;28;20120;-76
2023/11/03 04:46:18;;;;;;;2.75;1.00;;;;;;;;;;10529940;28;20506;-77
2023/11/03 04:51:21;;;;;;;1.50;0.90;;;;;;;;;;10532811;28;20439;-76
2023/11/03 04:56:26;;;;;;;5.55;1.25;;;;;;;;;;10530710;28;20135;-76
2023/11/03 05:01:30;;;;;;;0.45;0.35;;;;;;;;;;10527472;28;20175;-75
2023/11/03 05:06:33;;;;;;;1.85;1.00;;;;;;;;;;10541705;28;20120;-75
2023/11/03 05:11:37;;;;;;;2.40;1.05;;;;;;;;;;10529585;28;20065;-75
2023/11/03 05:16:40;;;;;;;4.93;1.33;;;;;;;;;;10511416;28;20128;-76
2023/11/03 05:21:42;;;;;;;5.63;1.45;;;;;;;;;;10525071;28;20546;-75
2023/11/03 05:26:46;;;;;;;4.47;1.15;;;;;;;;;;10521889;28;20131;-77
2023/11/03 05:31:49;;;;;;;5.43;0.80;;;;;;;;;;10524982;28;20122;-75
2023/11/03 05:36:53;;;;;;;3.95;1.27;;;;;;;;;;10531643;28;20143;-75
2023/11/03 05:41:57;;;;;;;4.18;1.02;;;;;;;;;;10526248;28;20055;-76
2023/11/03 05:47:00;;;;;;;;;;;;;;;;;;10522598;28;20127;-75
2023/11/03 05:52:03;;;;;;;3.45;1.00;;;;;;;;;;10522047;28;20445;-76
2023/11/03 05:57:07;;;;;;;2.22;1.02;;;;;;;;;;10520636;28;20047;-76
2023/11/03 06:02:11;;;;;;;4.15;1.35;;;;;;;;;;10531621;28;20143;-76
2023/11/03 06:07:14;;;;;;;1.77;1.10;;;;;;;;;;10528387;28;20039;-76
2023/11/03 06:12:18;;;;;;;6.75;1.13;;;;;;;;;;10526504;28;20447;-76
2023/11/03 06:17:21;;;;;;;2.90;1.17;;;;;;;;;;10525285;28;20036;-76
2023/11/03 06:22:24;;;;;;;2.60;1.00;;;;;;;;;;10522166;28;20686;-75
2023/11/03 06:27:28;;;;;;;1.23;0.75;;;;;;;;;;10519476;28;20127;-75
2023/11/03 06:32:31;;;;;;;1.88;0.57;;;;;;;;;;10524763;28;20670;-75
2023/11/03 06:37:33;;;;;;;1.58;0.93;;;;;;;;;;10531745;28;20204;-75
2023/11/03 06:42:38;;;;;;;;;;;;;;;;;;10531149;28;20040;-74
2023/11/03 06:47:43;;;;;;;3.00;0.90;;;;;;;;;;10533179;28;19920;-75
2023/11/03 06:52:47;;;;;;;2.92;1.08;;;;;;;;;;10533952;28;20044;-75
2023/11/03 06:57:52;;;;;;;2.92;1.27;;;;;;;;;;10528555;28;20047;-76
2023/11/03 07:02:56;;;;;;;2.38;1.40;;;;;;;;;;10531504;28;20039;-76
2023/11/03 07:08:00;;;;;;;3.53;1.27;;;;;;;;;;10520214;28;20586;-79
2023/11/03 07:13:04;;;;;;;2.60;1.10;;;;;;;;;;10525157;28;20070;-77
2023/11/03 07:18:08;;;;;;;4.35;1.35;;;;;;;;;;10526893;28;20044;-79
2023/11/03 07:23:11;;;;;;;3.05;1.30;;;;;;;;;;10525151;28;20032;-78
2023/11/03 07:28:17;;;;;;;2.70;1.15;;;;;;;;;;10517607;28;20055;-78
2023/11/03 07:33:20;;;;;;;3.92;1.15;;;;;;;;;;10524606;28;20398;-78
2023/11/03 07:38:25;;;;;;;1.90;1.02;;;;;;;;;;10528192;28;20063;-77
2023/11/03 07:43:27;;;;;;;2.70;1.40;;;;;;;;;;10525209;28;20129;-78
2023/11/03 07:48:31;;;;;;;4.55;1.25;;;;;;;;;;10521098;28;20083;-79
2023/11/03 07:53:34;;;;;;;;;;;;;;;;;;10505861;28;20071;-79
2023/11/03 07:58:37;;;;;;;3.67;1.20;;;;;;;;;;10527262;28;20313;-78
2023/11/03 08:03:41;;;;;;;2.40;0.77;;;;;;;;;;10532391;28;20122;-78
2023/11/03 08:08:44;;;;;;;5.25;1.25;;;;;;;;;;10507052;28;20040;-79
2023/11/03 08:13:47;;;;;;;2.95;1.20;;;;;;;;;;10527955;28;20604;-79
2023/11/03 08:18:55;;;;;;;3.53;1.10;;;;;;;;;;10522397;28;20575;-78
2023/11/03 08:23:58;;;;;;;10.35;1.30;;;;;;;;;;10523758;28;20043;-77
2023/11/03 08:29:03;;;;;;;3.05;1.08;;;;;;;;;;10528233;28;20043;-79
2023/11/03 08:34:11;;;;;;;5.10;1.30;;;;;;;;;;10524988;28;20047;-79
2023/11/03 08:39:17;;;;;;;6.38;1.30;;;;;;;;;;10507064;28;20089;-79
2023/11/03 08:44:31;;;;;;;2.10;1.08;;;;;;;;;;10523083;28;20051;-79
2023/11/03 08:49:35;;;;;;;1.70;0.75;;;;;;;;;;10519193;28;20390;-79
2023/11/03 08:54:38;;;;;;;1.75;0.88;;;;;;;;;;10528796;28;20036;-79
2023/11/03 08:59:41;;;;;;;2.95;1.15;;;;;;;;;;10525685;28;20477;-78
2023/11/03 09:04:46;;;;;;;2.55;1.17;;;;;;;;;;10529472;28;20437;-78
2023/11/03 09:09:48;;;;;;;3.00;1.05;;;;;;;;;;10528038;28;20253;-77
2023/11/03 09:14:51;;;;;;;6.20;1.10;;;;;;;;;;10523510;28;20058;-79
2023/11/03 09:19:58;;;;;;;3.55;0.90;;;;;;;;;;10527956;28;20131;-78
2023/11/03 09:25:03;;;;;;;2.97;1.20;;;;;;;;;;10525606;28;20059;-78
2023/11/03 09:30:10;;;;;;;3.40;1.20;;;;;;;;;;10520715;28;20048;-78
2023/11/03 09:35:14;;;;;;;4.70;1.80;;;;;;;;;;10520238;28;20059;-79
2023/11/03 09:40:17;;;;;;;;;;;;;;;;;;10525027;28;20128;-79
2023/11/03 09:45:23;;;;;;;4.13;1.20;;;;;;;;;;10516350;28;20023;-80
2023/11/03 09:50:27;;;;;;;3.05;1.08;;;;;;;;;;10537524;28;20028;-78
2023/11/03 09:55:30;;;;;;;;;;;;;;;;;;10520376;28;20635;-78
2023/11/03 10:00:33;;;;;;;5.78;1.02;;;;;;;;;;10523180;28;19924;-78
2023/11/03 10:05:40;;;;;;;3.70;0.90;;;;;;;;;;10516710;28;20089;-79
2023/11/03 10:10:45;;;;;;;2.42;0.90;;;;;;;;;;10527206;28;20425;-79
2023/11/03 10:15:48;;;;;;;;;;;;;;;;;;10533887;28;20282;-79
2023/11/03 10:20:57;;;;;;;4.32;1.35;;;;;;;;;;10530209;28;19928;-78
2023/11/03 10:26:01;;;;;;;2.53;1.05;;;;;;;;;;10524044;28;20075;-78
2023/11/03 10:31:04;;;;;;;;;;;;;;;;;;10529494;28;20044;-78
2023/11/03 10:36:09;;;;;;;5.93;0.93;;;;;;;;;;10528314;28;19928;-77
2023/11/03 10:41:13;;;;;;;3.00;0.80;;;;;;;;;;10525823;28;20369;-78
2023/11/03 10:46:20;;;;;;;1.83;0.82;;;;;;;;;;10524786;28;20044;-79
2023/11/03 10:51:29;;;;;;;4.03;1.10;;;;;;;;;;10525830;28;20051;-78
2023/11/03 10:56:32;;;;;;;3.00;1.23;;;;;;;;;;10507440;28;20490;-78
2023/11/03 11:01:42;;;;;;;3.60;1.20;;;;;;;;;;10523787;28;20397;-78
2023/11/03 11:06:51;;;;;;;1.52;0.90;;;;;;;;;;10532798;28;20048;-78
2023/11/03 11:12:00;;;;;;;5.95;1.83;;;;;;;;;;10531384;28;20489;-78
2023/11/03 11:17:03;;;;;;;7.20;1.63;;;;;;;;;;10520254;28;20044;-79
2023/11/03 11:22:08;;;;;;;2.33;1.50;;;;;;;;;;10527798;28;20090;-78
2023/11/03 11:27:12;;;;;;;2.10;1.10;;;;;;;;;;10496577;28;20465;-79
2023/11/03 11:32:16;;;;;;;3.57;1.10;;;;;;;;;;10528260;28;20167;-78
2023/11/03 11:37:19;;;;;;;;;;;;;;;;;;10531724;28;20067;-78
2023/11/03 11:42:25;;;;;;;0.95;0.70;;;;;;;;;;10523020;28;19924;-79
2023/11/03 11:47:28;;;;;;;5.30;0.95;;;;;;;;;;10523431;28;20052;-79
2023/11/03 11:52:31;;;;;;;0.38;0.38;;;;;;;;;;10529640;28;20667;-79
2023/11/03 11:57:37;;;;;;;3.25;1.45;;;;;;;;;;10519898;28;20048;-79
2023/11/03 12:02:40;;;;;;;2.35;0.90;;;;;;;;;;10521441;28;20071;-79
2023/11/03 12:07:45;;;;;;;2.95;0.80;;;;;;;;;;10517808;28;20408;-78
2023/11/03 12:12:49;;;;;;;3.15;0.80;;;;;;;;;;10515043;28;20075;-79
2023/11/03 12:17:52;;;;;;;2.30;0.65;;;;;;;;;;10506524;28;20139;-78
2023/11/03 12:22:55;;;;;;;2.88;0.70;;;;;;;;;;10524653;28;20151;-79
2023/11/03 12:27:58;;;;;;;2.80;1.00;;;;;;;;;;10525724;28;20167;-77
2023/11/03 12:33:01;;;;;;;6.20;1.20;;;;;;;;;;10507682;28;20040;-78
2023/11/03 12:38:04;;;;;;;3.10;0.90;;;;;;;;;;10525981;28;20510;-78
2023/11/03 12:43:12;;;;;;;1.75;0.93;;;;;;;;;;10521654;28;20067;-79
2023/11/03 12:48:19;;;;;;;2.58;1.05;;;;;;;;;;10529032;28;20032;-78
2023/11/03 12:53:22;;;;;;;4.75;1.00;;;;;;;;;;10526690;28;20059;-78
2023/11/03 12:58:27;;;;;;;1.73;0.32;;;;;;;;;;10524082;28;20089;-78
2023/11/03 13:03:29;;;;;;;3.75;1.30;;;;;;;;;;10514927;28;20038;-80
2023/11/03 13:08:32;;;;;;;4.22;1.20;;;;;;;;;;10519868;28;20120;-79
2023/11/03 13:13:39;;;;;;;2.15;0.90;;;;;;;;;;10520637;28;20036;-79
2023/11/03 13:18:42;;;;;;;1.92;0.90;;;;;;;;;;10523366;28;20040;-78
2023/11/03 13:23:44;;;;;;;1.33;0.80;;;;;;;;;;10523703;28;20051;-78
2023/11/03 13:28:48;;;;;;;2.30;0.70;;;;;;;;;;10519392;28;20118;-78
2023/11/03 13:33:52;;;;;;;3.10;1.30;;;;;;;;;;10525591;28;20074;-78
2023/11/03 13:38:56;;;;;;;3.42;1.45;;;;;;;;;;10524839;28;20040;-78
2023/11/03 13:44:01;;;;;;;2.63;0.90;;;;;;;;;;10522303;28;20048;-79
2023/11/03 13:49:05;;;;;;;3.53;1.48;;;;;;;;;;10522607;28;20124;-78
2023/11/03 13:54:07;;;;;;;2.50;1.15;;;;;;;;;;10520746;28;20054;-79
2023/11/03 13:59:11;;;;;;;5.47;1.25;;;;;;;;;;10518918;28;20377;-79
2023/11/03 14:04:14;;;;;;;2.55;0.90;;;;;;;;;;10525345;28;20054;-78
2023/11/03 14:09:17;;;;;;;2.20;1.20;;;;;;;;;;10514953;28;20114;-78
2023/11/03 14:14:21;;;;;;;3.28;0.70;;;;;;;;;;10520987;28;20309;-80
2023/11/03 14:19:25;;;;;;;;;;;;;;;;;;10519845;28;20651;-80
2023/11/03 14:24:28;;;;;;;4.63;1.10;;;;;;;;;;10521005;28;20434;-79
2023/11/03 14:29:32;;;;;;;2.25;1.00;;;;;;;;;;10519001;28;20113;-80
2023/11/03 14:34:34;;;;;;;0.55;0.52;;;;;;;;;;10519177;28;20079;-80
2023/11/03 14:39:38;;;;;;;3.13;0.70;;;;;;;;;;10520251;28;20043;-80
2023/11/03 14:44:42;;;;;;;1.95;1.08;;;;;;;;;;10524494;28;20496;-79
2023/11/03 14:49:45;;;;;;;2.67;1.00;;;;;;;;;;10508707;28;20040;-79
2023/11/03 14:54:48;;;;;;;1.83;1.17;;;;;;;;;;10535682;28;20093;-80
2023/11/03 14:59:53;;;;;;;1.95;0.57;;;;;;;;;;10535575;28;20040;-83
2023/11/03 15:05:00;;;;;;;2.03;1.02;;;;;;;;;;10537820;28;20122;-79
2023/11/03 15:10:04;;;;;;;1.48;0.98;;;;;;;;;;10539649;28;20088;-80
2023/11/03 15:15:11;;;;;;;3.60;1.20;;;;;;;;;;10539541;28;20036;-80
2023/11/03 15:20:16;;;;;;;2.38;1.08;;;;;;;;;;10530322;28;20036;-79
2023/11/03 15:25:20;;;;;;;2.00;1.02;;;;;;;;;;10539657;28;20047;-79
2023/11/03 15:30:25;;;;;;;1.67;0.90;;;;;;;;;;10538133;28;20114;-78
2023/11/03 15:35:27;;;;;;;4.05;1.15;;;;;;;;;;10537562;28;20441;-81
2023/11/03 15:40:31;;;;;;;3.78;1.08;;;;;;;;;;10531768;28;20064;-78
2023/11/03 15:45:35;;;;;;;1.92;1.20;;;;;;;;;;10540363;28;20028;-80
2023/11/03 15:50:38;;;;;;;3.28;1.42;;;;;;;;;;10547278;28;20067;-79
2023/11/03 15:55:40;;;;;;;3.35;1.60;;;;;;;;;;10546810;28;20051;-78
2023/11/03 16:00:45;;;;;;;2.22;1.20;;;;;;;;;;10535771;28;20036;-78
2023/11/03 16:05:48;;;;;;;0.90;0.50;;;;;;;;;;10525884;28;20101;-79
2023/11/03 16:10:51;;;;;;;3.57;1.10;;;;;;;;;;10523026;28;20071;-79
2023/11/03 16:15:55;;;;;;;2.55;0.73;;;;;;;;;;10529046;28;20063;-78
2023/11/03 16:20:58;;;;;;;1.48;0.80;;;;;;;;;;10529388;28;20071;-79
2023/11/03 16:26:01;;;;;;;8.02;1.88;;;;;;;;;;10513113;28;20054;-79
2023/11/03 16:31:07;;;;;;;3.08;1.40;;;;;;;;;;10530761;28;20051;-79
2023/11/03 16:36:15;;;;;;;2.92;1.30;;;;;;;;;;10521458;28;20055;-81
2023/11/03 16:41:18;;;;;;;2.08;1.10;;;;;;;;;;10526666;28;20529;-79
2023/11/03 16:46:23;;;;;;;3.35;1.67;;;;;;;;;;10525564;28;20482;-79
2023/11/03 16:51:26;;;;;;;1.05;0.80;;;;;;;;;;10529288;28;20127;-79
2023/11/03 16:56:31;;;;;;;4.47;1.90;;;;;;;;;;10522201;28;20155;-79
2023/11/03 17:01:38;;;;;;;4.78;1.20;;;;;;;;;;10521902;28;20047;-80
2023/11/03 17:06:41;;;;;;;8.13;1.33;;;;;;;;;;10524513;28;20070;-80
2023/11/03 17:11:44;;;;;;;4.53;1.40;;;;;;;;;;10514640;28;20049;-80
2023/11/03 17:16:48;;;;;;;1.30;0.88;;;;;;;;;;10524829;28;20050;-80
2023/11/03 17:21:51;;;;;;;2.70;1.60;;;;;;;;;;10522605;28;20501;-81
2023/11/03 17:26:54;;;;;;;4.77;1.80;;;;;;;;;;10507753;28;20058;-80
2023/11/03 17:31:59;;;;;;;2.05;1.30;;;;;;;;;;10520020;28;20119;-80
2023/11/03 17:37:02;;;;;;;3.42;1.67;;;;;;;;;;10526021;28;20079;-80
2023/11/03 17:42:05;;;;;;;2.47;1.50;;;;;;;;;;10528743;28;20039;-81
2023/11/03 17:47:09;;;;;;;1.55;0.93;;;;;;;;;;10525936;28;20052;-81
2023/11/03 17:52:12;;;;;;;1.80;1.10;;;;;;;;;;10528744;28;20071;-80
2023/11/03 17:57:15;;;;;;;5.82;2.15;;;;;;;;;;10536219;28;20047;-80
2023/11/03 18:02:19;;;;;;;0.73;0.63;;;;;;;;;;10536525;28;20040;-82
2023/11/03 18:07:22;;;;;;;;;;;;;;;;;;10531135;28;20049;-80
2023/11/03 18:12:25;;;;;;;3.28;1.20;;;;;;;;;;10527660;28;20018;-81
2023/11/03 18:17:29;;;;;;;1.73;0.98;;;;;;;;;;10530098;28;20071;-81
2023/11/03 18:22:31;;;;;;;1.73;0.88;;;;;;;;;;10534624;28;20116;-80
2023/11/03 18:27:36;;;;;;;1.77;1.08;;;;;;;;;;10535004;28;20404;-81
2023/11/03 18:32:40;;;;;;;3.25;1.10;;;;;;;;;;10545892;28;20043;-80
2023/11/03 18:37:43;;;;;;;1.83;1.10;;;;;;;;;;10541361;28;20032;-79
2023/11/03 18:42:46;;;;;;;0.32;0.30;;;;;;;;;;10540955;28;20040;-80
2023/11/03 18:47:52;;;;;;;2.40;1.40;;;;;;;;;;10534823;28;20183;-80
2023/11/03 18:52:57;;;;;;;2.33;0.98;;;;;;;;;;10533958;28;20055;-81
2023/11/03 18:58:01;;;;;;;2.90;1.30;;;;;;;;;;10528819;28;20040;-80
2023/11/03 19:03:09;;;;;;;3.25;1.30;;;;;;;;;;10535171;28;20036;-81
2023/11/03 19:08:14;;;;;;;1.42;0.65;;;;;;;;;;10530864;28;20162;-80
2023/11/03 19:13:18;;;;;;;2.88;1.67;;;;;;;;;;10534154;28;20048;-80
2023/11/03 19:18:22;;;;;;;0.20;0.20;;;;;;;;;;10523806;28;20047;-82
2023/11/03 19:23:25;;;;;;;3.08;1.20;;;;;;;;;;10529197;28;20068;-81
2023/11/03 19:28:30;;;;;;;1.27;0.90;;;;;;;;;;10530832;28;20047;-80
2023/11/03 19:33:35;;;;;;;4.40;1.50;;;;;;;;;;10531644;28;20114;-80
2023/11/03 19:38:37;;;;;;;;;;;;;;;;;;10530598;28;20401;-80
2023/11/03 19:43:40;;;;;;;1.70;1.08;;;;;;;;;;10531961;28;19919;-80
2023/11/03 19:48:45;;;;;;;1.27;0.77;;;;;;;;;;10534275;28;20505;-80
2023/11/03 19:53:51;;;;;;;1.75;0.80;;;;;;;;;;10539520;28;20063;-81
2023/11/03 19:58:54;;;;;;;2.58;1.10;;;;;;;;;;10533328;28;20136;-80
2023/11/03 20:03:58;;;;;;;2.50;1.17;;;;;;;;;;10535686;28;20044;-80
2023/11/03 20:09:01;;;;;;;2.67;1.38;;;;;;;;;;10537160;28;20497;-81
2023/11/03 20:14:04;;;;;;;3.20;1.90;;;;;;;;;;10524493;28;20121;-78
2023/11/03 20:19:10;;;;;;;4.65;1.80;;;;;;;;;;10523439;28;20093;-77
2023/11/03 20:24:13;;;;;;;6.03;3.28;;;;;;;;;;10519013;28;20068;-78
2023/11/03 20:29:15;;;;;;;1.45;0.93;;;;;;;;;;10520823;28;20127;-78
2023/11/03 20:34:20;;;;;;;1.55;0.90;;;;;;;;;;10527668;28;20032;-79
2023/11/03 20:39:23;;;;;;;;;;;;;;;;;;10530207;28;20055;-77
2023/11/03 20:44:25;;;;;;;4.45;1.40;;;;;;;;;;10509965;28;19946;-77
2023/11/03 20:49:33;;;;;;;3.88;1.75;;;;;;;;;;10530459;28;20076;-78
2023/11/03 20:54:36;;;;;;;;;;;;;;;;;;10524952;28;20284;-77
2023/11/03 20:59:40;;;;;;;5.70;2.25;;;;;;;;;;10520643;28;20556;-78
2023/11/03 21:04:44;;;;;;;6.20;2.10;;;;;;;;;;10528919;28;20036;-78
2023/11/03 21:09:47;;;;;;;3.63;1.45;;;;;;;;;;10527693;28;20123;-78
2023/11/03 21:14:51;;;;;;;10.23;2.20;;;;;;;;;;10524761;28;20043;-78
2023/11/03 21:19:56;;;;;;;5.28;2.83;;;;;;;;;;10534354;28;20146;-78
2023/11/03 21:24:59;;;;;;;2.40;1.23;;;;;;;;;;10502916;28;20117;-78
2023/11/03 21:30:02;;;;;;;3.53;1.27;;;;;;;;;;10521710;28;20043;-77
2023/11/03 21:35:09;;;;;;;3.03;1.00;;;;;;;;;;10530261;28;20036;-77
2023/11/03 21:40:14;;;;;;;0.93;0.85;;;;;;;;;;10532062;28;20543;-77
2023/11/03 21:45:18;;;;;;;2.20;0.90;;;;;;;;;;10531944;28;20058;-77
2023/11/03 21:50:23;;;;;;;0.93;0.45;;;;;;;;;;10527085;28;20167;-77
2023/11/03 21:55:26;;;;;;;2.00;0.75;;;;;;;;;;10523907;28;20068;-77
2023/11/03 22:00:28;;;;;;;4.35;1.30;;;;;;;;;;10532619;28;20048;-76
2023/11/03 22:05:33;;;;;;;2.45;1.60;;;;;;;;;;10530985;28;20127;-75
2023/11/03 22:10:35;;;;;;;4.75;0.70;;;;;;;;;;10542794;28;20047;-76
2023/11/03 22:15:38;;;;;;;1.38;1.08;;;;;;;;;;10525304;28;20036;-77
2023/11/03 22:20:44;;;;;;;1.13;0.60;;;;;;;;;;10524181;28;20052;-76
2023/11/03 22:25:47;;;;;;;1.75;1.05;;;;;;;;;;10524261;28;20051;-76
2023/11/03 22:30:49;;;;;;;1.20;0.60;;;;;;;;;;10517848;28;20151;-76
2023/11/03 22:35:54;;;;;;;2.80;1.50;;;;;;;;;;10522402;28;20131;-77
2023/11/03 22:40:56;;;;;;;;;;;;;;;;;;10520952;28;20736;-77
2023/11/03 22:45:59;;;;;;;0.28;0.28;;;;;;;;;;10521278;28;19954;-75
2023/11/03 22:51:05;;;;;;;2.35;1.02;;;;;;;;;;10532935;28;20040;-75
2023/11/03 22:56:08;;;;;;;2.45;1.17;;;;;;;;;;10544785;28;20225;-75
2023/11/03 23:01:11;;;;;;;5.18;1.42;;;;;;;;;;10528083;28;20620;-76
2023/11/03 23:06:19;;;;;;;2.97;1.65;;;;;;;;;;10526873;28;20149;-77
2023/11/03 23:11:23;;;;;;;3.08;1.08;;;;;;;;;;10523103;28;20040;-77
2023/11/03 23:16:27;;;;;;;2.40;1.23;;;;;;;;;;10534822;28;20043;-77
2023/11/03 23:21:31;;;;;;;5.43;2.03;;;;;;;;;;10525315;28;20044;-77
2023/11/03 23:26:33;;;;;;;;;;;;;;;;;;10527777;28;20035;-77
2023/11/03 23:31:36;;;;;;;4.10;1.58;;;;;;;;;;10528263;28;19924;-77
2023/11/03 23:36:40;;;;;;;1.80;0.73;;;;;;;;;;10512696;28;20040;-77
2023/11/03 23:41:42;;;;;;;;;;;;;;;;;;10525734;28;20040;-77
2023/11/03 23:46:45;;;;;;;1.27;0.70;;;;;;;;;;10533877;28;19928;-76
2023/11/03 23:51:49;;;;;;;2.67;1.13;;;;;;;;;;10530202;28;20132;-76
2023/11/03 23:56:52;;;;;;;;;;;;;;;;;;10527590;28;20221;-76
